Terminal Aerodrome Forecast
Issued by NWS Jacksonville, FL

Home | Current Version | Previous Version | Text Only | Print | Product List | Glossary On
Versions: 1 2 3 4 5 6 7 8 9 10 11 12 13 14 15 16 17 18
000
FTUS42 KJAX 242340
TAFJAX
TAF
KJAX 242340Z 2500/2524 07011KT P6SM FEW025 SCT030 SCT250
      TEMPO 2500/2504 BKN025
     FM250400 10005KT P6SM BKN025
     FM251300 12010KT P6SM BKN030
     FM251600 12011G20KT P6SM BKN040=

USA.gov is the U.S. government's official web portal to all federal, state and local government web resources and services.